Time;durP1;ratioP1;P1;durP2;ratioP2;P2;SDS_P1;SDS_P2;PMS_P1;PMS_P2;Temp;Humidity;BMP_temperature;BMP_pressure;BME280_temperature;BME280_humidity;BME280_pressure;Samples;Min_cycle;Max_cycle;Signal;HPM_P1;HPM_P2
2021/08/11 00:00:16;;;;;;;11.50;3.20;;;;;;;;;;5076331;28;20040;-77
2021/08/11 00:02:42;;;;;;;6.78;3.25;;;;;;;;;;5077052;28;20480;-79
2021/08/11 00:05:09;;;;;;;6.13;3.08;;;;;;;;;;5076402;28;20047;-79
2021/08/11 00:07:35;;;;;;;9.98;3.17;;;;;;;;;;5076551;28;20061;-79
2021/08/11 00:10:01;;;;;;;7.93;3.38;;;;;;;;;;5076501;28;20032;-76
2021/08/11 00:12:27;;;;;;;7.32;2.97;;;;;;;;;;5076256;28;20041;-78
2021/08/11 00:14:53;;;;;;;6.43;3.00;;;;;;;;;;5076163;28;20111;-79
2021/08/11 00:17:20;;;;;;;7.22;3.10;;;;;;;;;;5076322;28;20071;-79
2021/08/11 00:19:46;;;;;;;9.52;3.40;;;;;;;;;;5076372;28;20040;-78
2021/08/11 00:22:12;;;;;;;6.05;3.03;;;;;;;;;;5076241;28;20098;-79
2021/08/11 00:24:38;;;;;;;8.02;2.67;;;;;;;;;;5076144;28;20055;-78
2021/08/11 00:27:04;;;;;;;8.00;3.13;;;;;;;;;;5076278;28;20052;-78
2021/08/11 00:29:30;;;;;;;6.70;3.20;;;;;;;;;;5075652;28;20515;-78
2021/08/11 00:31:56;;;;;;;6.13;3.05;;;;;;;;;;5075863;28;20072;-78
2021/08/11 00:34:22;;;;;;;7.85;3.53;;;;;;;;;;5076190;28;20044;-79
2021/08/11 00:36:48;;;;;;;11.57;4.43;;;;;;;;;;5076144;28;20032;-78
2021/08/11 00:39:14;;;;;;;9.70;3.58;;;;;;;;;;5075766;28;20496;-78
2021/08/11 00:41:44;;;;;;;9.50;3.70;;;;;;;;;;5075984;28;20033;-78
2021/08/11 00:44:11;;;;;;;6.07;3.53;;;;;;;;;;5075736;28;20062;-78
2021/08/11 00:46:39;;;;;;;7.43;3.35;;;;;;;;;;5075735;28;20369;-78
2021/08/11 00:49:05;;;;;;;6.45;3.38;;;;;;;;;;5075772;28;20029;-78
2021/08/11 00:51:31;;;;;;;9.85;3.95;;;;;;;;;;5075768;28;20041;-75
2021/08/11 00:53:57;;;;;;;7.95;3.35;;;;;;;;;;5075770;28;20477;-78
2021/08/11 00:56:25;;;;;;;10.65;3.30;;;;;;;;;;5075540;28;20032;-78
2021/08/11 00:58:51;;;;;;;7.55;3.63;;;;;;;;;;5074789;28;20036;-79
2021/08/11 01:01:17;;;;;;;5.45;3.55;;;;;;;;;;5075504;28;20056;-79
2021/08/11 01:03:44;;;;;;;10.43;3.70;;;;;;;;;;5075618;28;20033;-78
2021/08/11 01:06:10;;;;;;;8.98;3.47;;;;;;;;;;5075199;28;20106;-78
2021/08/11 01:08:37;;;;;;;9.20;3.50;;;;;;;;;;5075515;28;20499;-77
2021/08/11 01:11:04;;;;;;;7.88;3.40;;;;;;;;;;5075416;28;20044;-78
2021/08/11 01:13:31;;;;;;;7.45;3.25;;;;;;;;;;5074892;28;20473;-78
2021/08/11 01:15:57;;;;;;;10.32;3.38;;;;;;;;;;5075216;28;20392;-79
2021/08/11 01:18:23;;;;;;;8.98;3.65;;;;;;;;;;5074810;28;20028;-78
2021/08/11 01:20:55;;;;;;;8.20;3.90;;;;;;;;;;5074725;28;20040;-75
2021/08/11 01:23:22;;;;;;;8.52;3.58;;;;;;;;;;5075135;28;20048;-78
2021/08/11 01:25:52;;;;;;;11.10;4.28;;;;;;;;;;5074961;28;20085;-78
2021/08/11 01:28:24;;;;;;;9.60;4.03;;;;;;;;;;5074337;28;20492;-79
2021/08/11 01:30:50;;;;;;;7.72;3.92;;;;;;;;;;5074796;28;20045;-78
2021/08/11 01:33:22;;;;;;;7.40;3.88;;;;;;;;;;5074818;28;20366;-78
2021/08/11 01:35:48;;;;;;;;;;;;;;;;;;5075046;28;20036;-78
2021/08/11 01:38:15;;;;;;;10.40;3.92;;;;;;;;;;5074355;28;19923;-78
2021/08/11 01:40:47;;;;;;;8.25;4.00;;;;;;;;;;5074321;28;20029;-78
2021/08/11 01:43:13;;;;;;;;;;;;;;;;;;5074436;28;20067;-78
2021/08/11 01:45:41;;;;;;;9.82;4.10;;;;;;;;;;5074504;28;19908;-76
2021/08/11 01:48:27;;;;;;;9.50;3.90;;;;;;;;;;5074537;28;20036;-78
2021/08/11 01:50:54;;;;;;;7.03;3.22;;;;;;;;;;5074075;28;20127;-78
2021/08/11 01:53:21;;;;;;;11.43;3.90;;;;;;;;;;5074539;28;20031;-78
2021/08/11 01:55:48;;;;;;;7.13;3.80;;;;;;;;;;5074540;28;20104;-78
2021/08/11 01:58:14;;;;;;;7.60;4.20;;;;;;;;;;5073984;28;20044;-78
2021/08/11 02:00:40;;;;;;;12.13;4.13;;;;;;;;;;5074103;28;20042;-78
2021/08/11 02:03:07;;;;;;;14.75;3.80;;;;;;;;;;5074271;28;20035;-78
2021/08/11 02:05:33;;;;;;;9.77;3.80;;;;;;;;;;5074713;28;20384;-78
2021/08/11 02:08:02;;;;;;;5.88;3.58;;;;;;;;;;5074025;28;20043;-78
2021/08/11 02:10:28;;;;;;;5.47;3.45;;;;;;;;;;5074139;28;20044;-78
2021/08/11 02:12:55;;;;;;;6.25;3.65;;;;;;;;;;5074339;28;20041;-77
2021/08/11 02:15:21;;;;;;;8.70;4.10;;;;;;;;;;5073870;28;20028;-78
2021/08/11 02:17:47;;;;;;;5.45;3.17;;;;;;;;;;5074012;28;20037;-78
2021/08/11 02:20:15;;;;;;;6.10;2.80;;;;;;;;;;5073820;28;20483;-79
2021/08/11 02:22:41;;;;;;;6.82;3.15;;;;;;;;;;5073992;28;20063;-78
2021/08/11 02:25:08;;;;;;;8.52;3.60;;;;;;;;;;5073835;28;20028;-78
2021/08/11 02:27:39;;;;;;;7.25;3.38;;;;;;;;;;5073912;28;20040;-79
2021/08/11 02:30:10;;;;;;;7.22;3.17;;;;;;;;;;5073911;28;20033;-78
2021/08/11 02:32:38;;;;;;;7.07;4.03;;;;;;;;;;5073788;28;20048;-78
2021/08/11 02:35:08;;;;;;;9.73;4.03;;;;;;;;;;5074028;28;20384;-78
2021/08/11 02:37:38;;;;;;;8.82;4.00;;;;;;;;;;5073480;28;20435;-78
2021/08/11 02:40:07;;;;;;;9.77;3.75;;;;;;;;;;5073367;28;20493;-78
2021/08/11 02:42:39;;;;;;;8.88;3.85;;;;;;;;;;5073757;28;20029;-78
2021/08/11 02:45:10;;;;;;;6.68;3.50;;;;;;;;;;5073643;28;20064;-77
2021/08/11 02:47:38;;;;;;;6.88;3.45;;;;;;;;;;5073646;28;20028;-79
2021/08/11 02:50:05;;;;;;;9.60;3.95;;;;;;;;;;5073377;28;20115;-79
2021/08/11 02:52:32;;;;;;;4.78;3.35;;;;;;;;;;5073295;28;20066;-78
2021/08/11 02:54:59;;;;;;;10.63;4.00;;;;;;;;;;5073565;28;20048;-79
2021/08/11 02:57:25;;;;;;;5.65;3.80;;;;;;;;;;5073482;28;20068;-78
2021/08/11 02:59:52;;;;;;;7.70;4.30;;;;;;;;;;5073281;28;20393;-78
2021/08/11 03:02:18;;;;;;;5.68;3.28;;;;;;;;;;5073253;28;20037;-78
2021/08/11 03:04:44;;;;;;;7.68;3.45;;;;;;;;;;5073529;28;20036;-78
2021/08/11 03:07:10;;;;;;;8.73;3.75;;;;;;;;;;5073487;28;20040;-78
2021/08/11 03:09:37;;;;;;;8.23;4.07;;;;;;;;;;5073913;28;20114;-78
2021/08/11 03:12:06;;;;;;;9.40;4.07;;;;;;;;;;5073945;28;20082;-78
2021/08/11 03:14:32;;;;;;;4.72;3.50;;;;;;;;;;5073893;28;20025;-78
2021/08/11 03:16:58;;;;;;;10.60;3.90;;;;;;;;;;5073465;28;20547;-76
2021/08/11 03:19:24;;;;;;;9.82;3.88;;;;;;;;;;5073339;28;20059;-78
2021/08/11 03:21:51;;;;;;;8.35;3.85;;;;;;;;;;5073397;28;20048;-78
2021/08/11 03:24:18;;;;;;;6.45;3.78;;;;;;;;;;5073392;28;20033;-78
2021/08/11 03:26:44;;;;;;;9.68;3.90;;;;;;;;;;5072841;28;20063;-78
2021/08/11 03:29:10;;;;;;;10.75;4.13;;;;;;;;;;5073059;28;20039;-78
2021/08/11 03:31:37;;;;;;;9.50;4.22;;;;;;;;;;5073277;28;20116;-78
2021/08/11 03:34:03;;;;;;;9.45;3.97;;;;;;;;;;5073029;28;20111;-78
2021/08/11 03:36:29;;;;;;;6.47;3.75;;;;;;;;;;5073524;28;20516;-77
2021/08/11 03:38:55;;;;;;;6.88;3.92;;;;;;;;;;5071997;28;20045;-76
2021/08/11 03:41:21;;;;;;;10.70;3.38;;;;;;;;;;5072073;28;20028;-78
2021/08/11 03:43:47;;;;;;;6.45;3.80;;;;;;;;;;5072071;28;20106;-78
2021/08/11 03:46:13;;;;;;;8.23;3.45;;;;;;;;;;5072141;28;20033;-78
2021/08/11 03:48:39;;;;;;;7.20;3.33;;;;;;;;;;5072009;28;20040;-78
2021/08/11 03:51:05;;;;;;;5.05;3.20;;;;;;;;;;5072078;28;20480;-78
2021/08/11 03:53:31;;;;;;;7.00;3.60;;;;;;;;;;5071987;28;20051;-77
2021/08/11 03:55:57;;;;;;;10.48;3.60;;;;;;;;;;5072328;28;20119;-78
2021/08/11 03:58:23;;;;;;;8.02;3.42;;;;;;;;;;5071817;28;20032;-78
2021/08/11 04:00:49;;;;;;;7.75;3.25;;;;;;;;;;5071813;28;20051;-77
2021/08/11 04:03:15;;;;;;;6.25;3.28;;;;;;;;;;5071897;28;20036;-78
2021/08/11 04:05:41;;;;;;;9.15;3.72;;;;;;;;;;5074099;28;20444;-78
2021/08/11 04:08:07;;;;;;;5.05;3.47;;;;;;;;;;5075344;28;20059;-78
2021/08/11 04:10:33;;;;;;;8.95;3.50;;;;;;;;;;5075274;28;20076;-78
2021/08/11 04:12:59;;;;;;;8.73;4.05;;;;;;;;;;5075289;28;20044;-77
2021/08/11 04:15:25;;;;;;;8.75;3.67;;;;;;;;;;5075011;28;20036;-78
2021/08/11 04:17:51;;;;;;;6.47;3.17;;;;;;;;;;5075162;28;20052;-78
2021/08/11 04:20:19;;;;;;;6.30;3.28;;;;;;;;;;5075156;28;20071;-78
2021/08/11 04:22:45;;;;;;;10.52;3.42;;;;;;;;;;5075053;28;20036;-78
2021/08/11 04:25:11;;;;;;;4.90;3.22;;;;;;;;;;5074803;28;20058;-78
2021/08/11 04:27:37;;;;;;;7.65;3.85;;;;;;;;;;5074858;28;20438;-77
2021/08/11 04:30:04;;;;;;;10.02;3.60;;;;;;;;;;5074933;28;20040;-78
2021/08/11 04:32:30;;;;;;;8.27;3.53;;;;;;;;;;5075127;28;20032;-78
2021/08/11 04:34:56;;;;;;;8.52;3.65;;;;;;;;;;5075044;28;20071;-78
2021/08/11 04:37:22;;;;;;;7.55;4.10;;;;;;;;;;5034293;28;1148543;-77
2021/08/11 04:39:49;;;;;;;10.15;3.75;;;;;;;;;;5075876;28;20041;-78
2021/08/11 04:42:15;;;;;;;16.40;4.22;;;;;;;;;;5076076;28;20389;-78
2021/08/11 04:44:41;;;;;;;16.15;4.00;;;;;;;;;;5075878;28;20496;-74
2021/08/11 04:47:07;;;;;;;9.93;3.60;;;;;;;;;;5075760;28;20073;-74
2021/08/11 04:49:33;;;;;;;16.60;3.63;;;;;;;;;;5075738;28;20028;-74
2021/08/11 04:51:59;;;;;;;9.70;3.92;;;;;;;;;;5075504;28;20071;-74
2021/08/11 04:54:25;;;;;;;5.63;3.90;;;;;;;;;;5075433;28;20533;-75
2021/08/11 04:56:51;;;;;;;13.70;4.03;;;;;;;;;;5075676;28;20079;-74
2021/08/11 04:59:17;;;;;;;19.58;4.05;;;;;;;;;;5075390;28;20025;-74
2021/08/11 05:01:43;;;;;;;13.70;3.92;;;;;;;;;;5075591;28;20105;-72
2021/08/11 05:04:09;;;;;;;13.75;3.70;;;;;;;;;;5075305;28;20029;-73
2021/08/11 05:06:35;;;;;;;11.77;4.05;;;;;;;;;;5075322;28;20154;-74
2021/08/11 05:09:01;;;;;;;8.27;3.60;;;;;;;;;;5075251;28;20434;-74
2021/08/11 05:11:28;;;;;;;16.85;4.30;;;;;;;;;;5074852;28;20435;-74
2021/08/11 05:13:54;;;;;;;15.20;3.85;;;;;;;;;;5074762;28;20032;-74
2021/08/11 05:16:20;;;;;;;8.32;3.42;;;;;;;;;;5073880;28;20503;-73
2021/08/11 05:18:46;;;;;;;11.50;3.72;;;;;;;;;;5075279;28;20033;-73
2021/08/11 05:21:12;;;;;;;22.05;4.40;;;;;;;;;;5074523;28;20036;-73
2021/08/11 05:23:38;;;;;;;15.15;3.78;;;;;;;;;;5074272;28;20035;-73
2021/08/11 05:26:04;;;;;;;13.32;3.75;;;;;;;;;;5074156;28;20032;-72
2021/08/11 05:28:30;;;;;;;13.18;3.90;;;;;;;;;;5074822;28;20055;-73
2021/08/11 05:30:56;;;;;;;12.07;4.20;;;;;;;;;;5073405;28;20086;-74
2021/08/11 05:33:22;;;;;;;11.77;4.35;;;;;;;;;;5074696;28;20043;-74
2021/08/11 05:35:48;;;;;;;15.98;4.30;;;;;;;;;;5074832;28;20032;-74
2021/08/11 05:38:14;;;;;;;8.25;3.60;;;;;;;;;;5074454;28;20045;-74
2021/08/11 05:40:40;;;;;;;9.68;3.75;;;;;;;;;;5074588;28;20473;-74
2021/08/11 05:43:06;;;;;;;10.73;3.83;;;;;;;;;;5074796;28;20093;-72
2021/08/11 05:45:32;;;;;;;12.77;3.47;;;;;;;;;;5074407;28;20450;-74
2021/08/11 05:47:58;;;;;;;14.60;4.40;;;;;;;;;;5074404;28;20115;-73
2021/08/11 05:50:24;;;;;;;12.40;3.80;;;;;;;;;;5074219;28;20105;-73
2021/08/11 05:52:50;;;;;;;18.33;4.65;;;;;;;;;;5074211;28;20086;-74
2021/08/11 05:55:16;;;;;;;20.52;3.90;;;;;;;;;;5074126;28;20029;-74
2021/08/11 05:57:42;;;;;;;24.45;4.43;;;;;;;;;;5074258;28;20064;-73
2021/08/11 06:00:09;;;;;;;15.50;3.72;;;;;;;;;;5074572;28;20051;-74
2021/08/11 06:02:38;;;;;;;20.92;4.90;;;;;;;;;;5073933;28;20043;-74
2021/08/11 06:05:05;;;;;;;20.98;4.60;;;;;;;;;;5074101;28;20040;-73
2021/08/11 06:07:31;;;;;;;14.15;4.18;;;;;;;;;;5073937;28;20041;-73
2021/08/11 06:09:56;;;;;;;19.60;4.57;;;;;;;;;;5073802;28;20040;-71
2021/08/11 06:12:23;;;;;;;19.67;5.13;;;;;;;;;;5073582;28;20067;-72
2021/08/11 06:14:49;;;;;;;19.20;4.05;;;;;;;;;;5073915;28;20032;-72
2021/08/11 06:17:15;;;;;;;19.67;4.07;;;;;;;;;;5073731;28;20059;-75
2021/08/11 06:19:42;;;;;;;7.28;3.38;;;;;;;;;;5073545;28;20484;-74
2021/08/11 06:22:09;;;;;;;12.25;4.00;;;;;;;;;;5073607;28;20036;-75
2021/08/11 06:24:35;;;;;;;10.10;4.03;;;;;;;;;;5073432;28;20107;-73
2021/08/11 06:27:01;;;;;;;8.18;3.88;;;;;;;;;;5073376;28;20121;-71
2021/08/11 06:29:27;;;;;;;14.77;4.30;;;;;;;;;;5073481;28;20079;-74
2021/08/11 06:31:53;;;;;;;12.90;4.38;;;;;;;;;;5073398;28;20068;-71
2021/08/11 06:34:19;;;;;;;16.55;4.88;;;;;;;;;;5073276;28;20469;-72
2021/08/11 06:36:45;;;;;;;15.75;4.70;;;;;;;;;;5073728;28;20086;-76
2021/08/11 06:39:11;;;;;;;10.98;3.90;;;;;;;;;;5073300;28;20048;-74
2021/08/11 06:41:37;;;;;;;10.05;3.60;;;;;;;;;;5073588;28;20447;-72
2021/08/11 06:44:03;;;;;;;11.77;3.70;;;;;;;;;;5073409;28;20032;-72
2021/08/11 06:46:29;;;;;;;10.48;4.00;;;;;;;;;;5073458;28;20454;-72
2021/08/11 06:48:55;;;;;;;12.48;3.17;;;;;;;;;;5073453;28;20060;-72
2021/08/11 06:51:21;;;;;;;8.35;3.50;;;;;;;;;;5073453;28;20076;-74
2021/08/11 06:53:47;;;;;;;7.00;3.25;;;;;;;;;;5073457;28;20036;-74
2021/08/11 06:56:13;;;;;;;7.07;3.55;;;;;;;;;;5073494;28;20150;-74
2021/08/11 06:58:39;;;;;;;7.53;3.35;;;;;;;;;;5073490;28;20447;-78
2021/08/11 07:01:05;;;;;;;8.70;3.72;;;;;;;;;;5073487;28;20550;-78
2021/08/11 07:03:31;;;;;;;13.00;3.50;;;;;;;;;;5073497;28;20031;-78
2021/08/11 07:05:57;;;;;;;7.45;4.00;;;;;;;;;;5073188;28;20037;-78
2021/08/11 07:08:23;;;;;;;9.85;3.60;;;;;;;;;;5073274;28;20039;-79
2021/08/11 07:10:50;;;;;;;6.10;3.55;;;;;;;;;;5073277;28;20051;-76
2021/08/11 07:13:16;;;;;;;10.77;4.32;;;;;;;;;;5073315;28;20032;-78
2021/08/11 07:15:42;;;;;;;9.40;3.80;;;;;;;;;;5073336;28;20075;-77
2021/08/11 07:18:08;;;;;;;6.55;3.65;;;;;;;;;;5073240;28;20473;-79
2021/08/11 07:20:34;;;;;;;8.90;3.50;;;;;;;;;;5073030;28;20040;-78
2021/08/11 07:23:00;;;;;;;6.85;3.58;;;;;;;;;;5073233;28;20082;-76
2021/08/11 07:25:27;;;;;;;5.32;3.83;;;;;;;;;;5073275;28;20439;-78
2021/08/11 07:27:53;;;;;;;9.23;3.97;;;;;;;;;;5073244;28;20082;-77
2021/08/11 07:30:19;;;;;;;9.40;3.60;;;;;;;;;;5073099;28;20082;-72
2021/08/11 07:32:45;;;;;;;8.32;4.13;;;;;;;;;;5072895;28;20554;-70
2021/08/11 07:35:12;;;;;;;5.22;3.53;;;;;;;;;;5073269;28;20032;-78
2021/08/11 07:37:48;;;;;;;5.45;3.50;;;;;;;;;;5073002;28;20053;-72
2021/08/11 07:40:15;;;;;;;9.32;3.55;;;;;;;;;;5075138;28;20033;-70
2021/08/11 07:42:41;;;;;;;7.35;3.50;;;;;;;;;;5077209;28;20032;-68
2021/08/11 07:45:08;;;;;;;9.40;3.72;;;;;;;;;;5077107;28;20037;-68
2021/08/11 07:47:34;;;;;;;7.95;3.67;;;;;;;;;;5077214;28;20039;-78
2021/08/11 07:50:00;;;;;;;8.65;3.90;;;;;;;;;;5076806;28;20123;-78
2021/08/11 07:52:26;;;;;;;10.48;3.63;;;;;;;;;;5076614;28;20048;-68
2021/08/11 07:54:52;;;;;;;6.50;3.75;;;;;;;;;;5076576;28;20089;-77
2021/08/11 07:57:18;;;;;;;5.72;3.83;;;;;;;;;;5076767;28;20116;-68
2021/08/11 07:59:44;;;;;;;9.38;3.75;;;;;;;;;;5076629;28;20061;-68
2021/08/11 08:02:11;;;;;;;6.30;3.40;;;;;;;;;;5076836;28;20064;-77
2021/08/11 08:04:37;;;;;;;8.63;3.65;;;;;;;;;;5076339;28;20120;-76
2021/08/11 08:07:03;;;;;;;8.93;3.60;;;;;;;;;;5076319;28;20155;-69
2021/08/11 08:09:30;;;;;;;6.60;3.72;;;;;;;;;;5076532;28;20032;-71
2021/08/11 08:11:56;;;;;;;4.78;3.33;;;;;;;;;;5076420;28;20047;-76
2021/08/11 08:14:22;;;;;;;9.95;4.00;;;;;;;;;;5076066;28;20377;-75
2021/08/11 08:16:48;;;;;;;11.13;3.80;;;;;;;;;;5076376;28;20039;-78
2021/08/11 08:19:14;;;;;;;6.35;3.60;;;;;;;;;;5076407;28;20542;-75
2021/08/11 08:21:40;;;;;;;8.80;3.63;;;;;;;;;;5076317;28;20044;-78
2021/08/11 08:24:10;;;;;;;8.68;3.65;;;;;;;;;;5076161;28;20029;-87
2021/08/11 08:26:36;;;;;;;4.82;3.40;;;;;;;;;;5075409;28;20043;-82
2021/08/11 08:29:03;;;;;;;9.70;3.58;;;;;;;;;;5076007;28;20039;-82
2021/08/11 08:31:29;;;;;;;10.82;3.60;;;;;;;;;;5075814;28;20051;-83
2021/08/11 08:33:56;;;;;;;11.40;3.65;;;;;;;;;;5076025;28;20063;-84
2021/08/11 08:36:22;;;;;;;10.43;3.40;;;;;;;;;;5075985;28;20115;-81
2021/08/11 08:38:48;;;;;;;9.35;3.92;;;;;;;;;;5075672;28;20128;-83
2021/08/11 08:41:15;;;;;;;10.18;4.13;;;;;;;;;;5075840;28;20040;-83
2021/08/11 08:43:41;;;;;;;4.97;2.97;;;;;;;;;;5075618;28;20028;-82
2021/08/11 08:46:08;;;;;;;5.63;3.50;;;;;;;;;;5075788;28;20388;-83
2021/08/11 08:48:38;;;;;;;4.60;3.40;;;;;;;;;;5075783;28;20081;-84
2021/08/11 08:51:07;;;;;;;7.50;3.83;;;;;;;;;;5075438;28;20072;-83
2021/08/11 08:53:34;;;;;;;5.72;3.42;;;;;;;;;;5075552;28;20162;-84
2021/08/11 08:56:00;;;;;;;10.23;3.50;;;;;;;;;;5075476;28;20037;-84
2021/08/11 08:58:27;;;;;;;7.38;3.63;;;;;;;;;;5075417;28;20028;-83
2021/08/11 09:00:53;;;;;;;5.32;3.20;;;;;;;;;;5075600;28;20032;-83
2021/08/11 09:03:19;;;;;;;4.90;3.17;;;;;;;;;;5075628;28;20028;-84
2021/08/11 09:05:46;;;;;;;8.27;3.60;;;;;;;;;;5075344;28;20037;-83
2021/08/11 09:08:12;;;;;;;6.30;2.90;;;;;;;;;;5075252;28;20041;-82
2021/08/11 09:10:39;;;;;;;4.63;3.30;;;;;;;;;;5075356;28;20036;-83
2021/08/11 09:13:12;;;;;;;24.73;3.50;;;;;;;;;;5075405;28;20115;-84
2021/08/11 09:15:41;;;;;;;5.35;3.25;;;;;;;;;;5075149;28;20068;-84
2021/08/11 09:18:10;;;;;;;5.88;3.28;;;;;;;;;;5075003;28;20069;-83
2021/08/11 09:20:36;;;;;;;5.72;2.92;;;;;;;;;;5075277;28;20033;-84
2021/08/11 09:23:02;;;;;;;5.03;3.28;;;;;;;;;;5074908;28;20032;-82
2021/08/11 09:25:28;;;;;;;5.47;3.30;;;;;;;;;;5075045;28;20037;-83
2021/08/11 09:27:54;;;;;;;10.13;4.05;;;;;;;;;;5075119;28;20028;-83
2021/08/11 09:30:21;;;;;;;12.20;3.47;;;;;;;;;;5074949;28;20526;-81
2021/08/11 09:32:52;;;;;;;5.68;2.90;;;;;;;;;;5074879;28;20046;-83
2021/08/11 09:35:26;;;;;;;12.95;3.42;;;;;;;;;;5075060;28;20039;-84
2021/08/11 09:37:53;;;;;;;5.30;2.90;;;;;;;;;;5073232;28;20052;-83
2021/08/11 09:40:20;;;;;;;8.10;3.17;;;;;;;;;;5074799;28;20036;-82
2021/08/11 09:42:47;;;;;;;7.70;3.33;;;;;;;;;;5074600;28;20028;-82
2021/08/11 09:45:13;;;;;;;6.15;3.17;;;;;;;;;;5074535;28;20392;-82
2021/08/11 09:47:53;;;;;;;6.63;3.17;;;;;;;;;;5074611;28;20037;-82
2021/08/11 09:50:19;;;;;;;5.57;2.97;;;;;;;;;;5074667;28;20124;-82
2021/08/11 09:52:49;;;;;;;6.13;3.00;;;;;;;;;;5074402;28;20116;-83
2021/08/11 09:55:16;;;;;;;6.80;3.00;;;;;;;;;;5074464;28;20070;-84
2021/08/11 09:57:42;;;;;;;4.75;3.17;;;;;;;;;;5074429;28;20037;-78
2021/08/11 10:00:08;;;;;;;5.90;3.20;;;;;;;;;;5074233;28;20036;-82
2021/08/11 10:02:37;;;;;;;7.55;2.80;;;;;;;;;;5073694;28;20037;-83
2021/08/11 10:05:03;;;;;;;5.60;3.00;;;;;;;;;;5074490;28;20112;-83
2021/08/11 10:07:29;;;;;;;5.10;3.10;;;;;;;;;;5074512;28;20384;-87
2021/08/11 10:10:02;;;;;;;8.40;3.72;;;;;;;;;;5074484;28;20039;-87
2021/08/11 10:12:31;;;;;;;6.07;3.28;;;;;;;;;;5074387;28;20044;-85
2021/08/11 10:14:58;;;;;;;6.18;3.03;;;;;;;;;;5074016;28;20039;-82
2021/08/11 10:17:29;;;;;;;7.22;3.40;;;;;;;;;;5074314;28;20059;-86
2021/08/11 10:19:55;;;;;;;5.38;3.30;;;;;;;;;;5074604;28;20116;-87
2021/08/11 10:22:21;;;;;;;7.70;3.80;;;;;;;;;;5074352;28;20029;-88
2021/08/11 10:24:50;;;;;;;6.47;2.85;;;;;;;;;;5073893;28;20029;-80
2021/08/11 10:27:18;;;;;;;8.65;3.33;;;;;;;;;;5073697;28;20040;-87
2021/08/11 10:29:45;;;;;;;13.13;3.45;;;;;;;;;;5073639;28;20599;-85
2021/08/11 10:32:12;;;;;;;8.95;3.28;;;;;;;;;;5073533;28;20123;-86
2021/08/11 10:34:39;;;;;;;10.25;3.70;;;;;;;;;;5074246;28;20165;-88
2021/08/11 10:37:05;;;;;;;6.78;3.13;;;;;;;;;;5074041;28;20385;-84
2021/08/11 10:39:32;;;;;;;15.20;3.15;;;;;;;;;;5073512;28;20087;-85
2021/08/11 10:42:01;;;;;;;9.88;3.55;;;;;;;;;;5073790;28;20040;-80
2021/08/11 10:44:28;;;;;;;7.00;3.50;;;;;;;;;;5073460;28;20025;-78
2021/08/11 10:46:57;;;;;;;3.83;3.13;;;;;;;;;;5073587;28;20040;-79
2021/08/11 10:49:27;;;;;;;4.82;2.85;;;;;;;;;;5073527;28;20161;-79
2021/08/11 10:51:58;;;;;;;12.07;4.18;;;;;;;;;;5073476;28;20127;-80
2021/08/11 10:54:24;;;;;;;6.28;3.65;;;;;;;;;;5073359;28;20074;-79
2021/08/11 10:56:51;;;;;;;4.68;2.75;;;;;;;;;;5073309;28;20044;-78
2021/08/11 10:59:29;;;;;;;3.55;2.97;;;;;;;;;;5073611;28;20427;-84
2021/08/11 11:01:56;;;;;;;4.43;3.08;;;;;;;;;;5072212;28;20431;-82
2021/08/11 11:04:37;;;;;;;5.60;3.22;;;;;;;;;;5073438;28;20036;-82
2021/08/11 11:07:13;;;;;;;6.32;3.42;;;;;;;;;;5073457;28;20067;-83
2021/08/11 11:09:39;;;;;;;8.60;3.60;;;;;;;;;;5073201;28;20507;-82
2021/08/11 11:12:18;;;;;;;10.82;3.30;;;;;;;;;;5073158;28;20066;-82
2021/08/11 11:14:47;;;;;;;4.85;3.05;;;;;;;;;;5076567;28;20025;-81
2021/08/11 11:17:16;;;;;;;5.00;3.10;;;;;;;;;;5077566;28;20047;-82
2021/08/11 11:20:01;;;;;;;6.60;3.13;;;;;;;;;;5077381;28;20031;-81
2021/08/11 11:22:34;;;;;;;6.53;3.45;;;;;;;;;;5077368;28;20070;-81
2021/08/11 11:25:00;;;;;;;4.78;3.40;;;;;;;;;;5077404;28;20036;-80
2021/08/11 11:27:38;;;;;;;7.03;3.65;;;;;;;;;;5077311;28;20033;-82
2021/08/11 11:30:04;;;;;;;13.05;3.50;;;;;;;;;;5076367;28;20508;-81
2021/08/11 11:32:30;;;;;;;5.45;3.10;;;;;;;;;;5077013;28;20072;-80
2021/08/11 11:35:15;;;;;;;4.95;3.00;;;;;;;;;;5077196;28;20033;-80
2021/08/11 11:37:42;;;;;;;5.75;3.05;;;;;;;;;;5076526;28;20551;-80
2021/08/11 11:40:09;;;;;;;4.88;3.55;;;;;;;;;;5076903;28;20519;-76
2021/08/11 11:42:35;;;;;;;4.20;3.20;;;;;;;;;;5076967;28;20032;-84
2021/08/11 11:45:03;;;;;;;4.13;3.28;;;;;;;;;;5076953;28;20036;-83
2021/08/11 11:47:38;;;;;;;3.90;2.85;;;;;;;;;;5077020;28;20028;-82
2021/08/11 11:52:54;;;;;;;7.97;3.35;;;;;;;;;;5076200;28;20468;-83
2021/08/11 11:55:41;;;;;;;3.58;2.92;;;;;;;;;;5077670;28;20039;-88
2021/08/11 11:58:17;;;;;;;5.93;3.10;;;;;;;;;;5077625;28;20041;-84
2021/08/11 12:00:44;;;;;;;6.53;3.28;;;;;;;;;;5077294;28;20449;-89
2021/08/11 12:03:11;;;;;;;8.07;3.17;;;;;;;;;;5076914;28;20029;-90
2021/08/11 12:05:47;;;;;;;8.80;3.28;;;;;;;;;;5077536;28;20036;-89
2021/08/11 12:08:15;;;;;;;7.80;3.50;;;;;;;;;;5076447;28;20068;-81
2021/08/11 12:10:41;;;;;;;6.03;3.20;;;;;;;;;;5076411;28;20106;-81
2021/08/11 12:13:08;;;;;;;6.63;3.42;;;;;;;;;;5076474;28;20111;-85
2021/08/11 12:15:38;;;;;;;5.50;2.80;;;;;;;;;;5075916;28;20112;-86
2021/08/11 12:18:14;;;;;;;4.90;3.33;;;;;;;;;;5076308;28;20032;-85
2021/08/11 12:20:40;;;;;;;4.80;3.00;;;;;;;;;;5076362;28;20078;-86
2021/08/11 12:23:21;;;;;;;6.80;3.70;;;;;;;;;;5076062;28;20024;-82
2021/08/11 12:25:51;;;;;;;4.85;3.30;;;;;;;;;;5074877;28;20581;-85
2021/08/11 12:28:18;;;;;;;5.88;3.10;;;;;;;;;;5076111;28;20036;-85
2021/08/11 12:30:50;;;;;;;5.10;2.83;;;;;;;;;;5075530;28;20040;-82
2021/08/11 12:33:18;;;;;;;4.32;2.80;;;;;;;;;;5076395;28;20496;-91
2021/08/11 12:35:44;;;;;;;5.63;2.92;;;;;;;;;;5076472;28;20043;-88
2021/08/11 12:38:10;;;;;;;4.85;3.08;;;;;;;;;;5076167;28;20145;-82
2021/08/11 12:40:38;;;;;;;12.82;3.60;;;;;;;;;;5076191;28;20029;-78
2021/08/11 12:43:05;;;;;;;7.05;3.17;;;;;;;;;;5075771;28;20041;-80
2021/08/11 12:45:50;;;;;;;5.15;3.42;;;;;;;;;;5075884;28;20035;-80
2021/08/11 12:48:22;;;;;;;6.20;3.00;;;;;;;;;;5075543;28;20036;-78
2021/08/11 12:50:48;;;;;;;4.10;3.00;;;;;;;;;;5075320;28;20469;-80
2021/08/11 12:53:22;;;;;;;4.07;2.58;;;;;;;;;;5075654;28;20044;-82
2021/08/11 12:55:48;;;;;;;6.25;2.90;;;;;;;;;;5075626;28;20032;-80
2021/08/11 12:58:14;;;;;;;6.88;2.88;;;;;;;;;;5075555;28;20032;-81
2021/08/11 13:00:42;;;;;;;5.35;2.90;;;;;;;;;;5075546;28;20028;-79
2021/08/11 13:03:10;;;;;;;5.32;3.10;;;;;;;;;;5075340;28;20442;-80
2021/08/11 13:05:48;;;;;;;4.55;2.92;;;;;;;;;;5075107;28;20029;-80
2021/08/11 13:08:14;;;;;;;5.15;3.10;;;;;;;;;;5075316;28;20124;-80
2021/08/11 13:10:52;;;;;;;7.47;3.30;;;;;;;;;;5075252;28;20036;-81
2021/08/11 13:13:22;;;;;;;4.60;3.00;;;;;;;;;;5075021;28;20032;-79
2021/08/11 13:15:48;;;;;;;4.43;3.00;;;;;;;;;;5075263;28;20040;-81
2021/08/11 13:18:23;;;;;;;5.35;3.15;;;;;;;;;;5075201;28;20507;-80
2021/08/11 13:20:49;;;;;;;4.30;2.75;;;;;;;;;;5074965;28;20039;-79
2021/08/11 13:23:15;;;;;;;6.63;3.00;;;;;;;;;;5075002;28;20166;-81
2021/08/11 13:25:44;;;;;;;6.68;2.90;;;;;;;;;;5074991;28;20040;-80
2021/08/11 13:28:10;;;;;;;7.63;3.88;;;;;;;;;;5075072;28;20072;-81
2021/08/11 13:30:37;;;;;;;6.28;3.05;;;;;;;;;;5074630;28;20395;-80
2021/08/11 13:33:03;;;;;;;5.22;3.05;;;;;;;;;;5074924;28;20044;-81
2021/08/11 13:35:31;;;;;;;3.50;2.80;;;;;;;;;;5074671;28;20040;-79
2021/08/11 13:37:57;;;;;;;6.10;2.95;;;;;;;;;;5073563;28;20550;-82
2021/08/11 13:40:24;;;;;;;3.95;3.00;;;;;;;;;;5074709;28;20036;-81
2021/08/11 13:42:50;;;;;;;7.28;3.33;;;;;;;;;;5074755;28;20157;-80
2021/08/11 13:45:16;;;;;;;5.15;3.00;;;;;;;;;;5074375;28;20021;-80
2021/08/11 13:47:42;;;;;;;7.45;3.05;;;;;;;;;;5074667;28;20048;-81
2021/08/11 13:50:09;;;;;;;3.63;2.78;;;;;;;;;;5074334;28;20373;-80
2021/08/11 13:52:35;;;;;;;5.22;3.10;;;;;;;;;;5074517;28;20124;-80
2021/08/11 13:55:01;;;;;;;4.25;3.05;;;;;;;;;;5074443;28;20469;-80
2021/08/11 13:57:29;;;;;;;4.70;2.92;;;;;;;;;;5074411;28;20480;-80
2021/08/11 13:59:55;;;;;;;5.28;3.17;;;;;;;;;;5073997;28;20055;-80
2021/08/11 14:02:21;;;;;;;8.45;3.35;;;;;;;;;;5074201;28;20040;-79
2021/08/11 14:04:49;;;;;;;7.22;2.97;;;;;;;;;;5074357;28;20089;-80
2021/08/11 14:07:15;;;;;;;4.45;3.13;;;;;;;;;;5074283;28;20033;-81
2021/08/11 14:09:41;;;;;;;9.55;3.03;;;;;;;;;;5073870;28;20041;-80
2021/08/11 14:12:08;;;;;;;5.10;2.92;;;;;;;;;;5074196;28;20047;-81
2021/08/11 14:14:36;;;;;;;3.25;2.78;;;;;;;;;;5074448;28;20032;-81
2021/08/11 14:17:03;;;;;;;6.05;2.95;;;;;;;;;;5074058;28;20044;-79
2021/08/11 14:19:29;;;;;;;4.93;2.83;;;;;;;;;;5074161;28;20036;-79
2021/08/11 14:21:55;;;;;;;4.90;2.88;;;;;;;;;;5074127;28;20090;-72
2021/08/11 14:24:21;;;;;;;10.45;3.85;;;;;;;;;;5073947;28;20035;-68
2021/08/11 14:26:47;;;;;;;4.65;3.15;;;;;;;;;;5073772;28;20111;-81
2021/08/11 14:29:14;;;;;;;7.50;3.05;;;;;;;;;;5073753;28;20051;-77
2021/08/11 14:31:41;;;;;;;5.88;2.83;;;;;;;;;;5073612;28;20072;-67
2021/08/11 14:34:07;;;;;;;5.85;3.00;;;;;;;;;;5073664;28;20552;-67
2021/08/11 14:36:33;;;;;;;7.28;3.40;;;;;;;;;;5073552;28;20046;-67
2021/08/11 14:38:59;;;;;;;7.05;3.17;;;;;;;;;;5073361;28;20132;-80
2021/08/11 14:41:25;;;;;;;4.18;2.83;;;;;;;;;;5073706;28;20035;-80
2021/08/11 14:43:51;;;;;;;9.43;3.10;;;;;;;;;;5073469;28;20059;-80